Humidity-temperature Sensor

Selected Measurement Type: Air Temperature

 
Air Temperature [°C]     6 entries per hour
Showing data from 7/20/2020 (00:00:00 Z) to 7/19/2020 (00:01:00 Z)
Previous Next [ Day | 3-Days | 7-Days ]
First Last
Prev [ Day | 3-Days | 7-Days ] Next
First Last

Start Time:     :
End Time:     :     
Time (in GMT) :00 :50 :40 :30 :20 :10
Previous Next [ Day | 3-Days | 7-Days ]
First Last
Prev [ Day | 3-Days | 7-Days ] Next
First Last


123 => good data
MM => data is determined as missing
-- => data not received/configured
Back to Top Back to Top
7/20/2020 00:00 to 23:10 19.56 19.58 19.60 19.62 19.64 19.66
7/19/2020 23:00 to 22:10 19.68 19.67 19.67 19.61 19.55 19.56
7/19/2020 22:00 to 21:10 19.76 19.76 19.74 19.72 19.71 19.68
7/19/2020 21:00 to 20:10 19.64 19.65 19.73 19.67 19.71 19.73
7/19/2020 20:00 to 19:10 19.69 19.75 19.72 19.65 19.74 19.65
7/19/2020 19:00 to 18:10 19.76 19.86 19.75 19.75 19.94 19.91
7/19/2020 18:00 to 17:10 19.84 19.76 19.88 19.92 19.91 19.81
7/19/2020 17:00 to 16:10 19.86 19.88 19.78 19.68 19.71 19.83
7/19/2020 16:00 to 15:10 20.08 19.95 19.95 20.02 20.03 19.97
7/19/2020 15:00 to 14:10 19.88 19.84 19.83 19.80 19.80 19.70
7/19/2020 14:00 to 13:10 19.58 19.53 19.48 19.45 19.47 19.39
7/19/2020 13:00 to 12:10 19.46 19.47 19.53 19.62 19.52 19.37
7/19/2020 12:00 to 11:10 19.34 19.35 19.43 19.44 19.35 19.39
7/19/2020 11:00 to 10:10 19.57 19.57 19.59 19.66 19.66 19.63
7/19/2020 10:00 to 9:10 19.67 19.62 19.63 19.61 19.64 19.66
7/19/2020 09:00 to 8:10 19.67 19.70 19.87 19.90 19.95 19.93
7/19/2020 08:00 to 7:10 20.07 19.97 20.21 20.20 20.12 20.18
7/19/2020 07:00 to 6:10 20.24 20.47 20.41 20.37 20.40 20.46
7/19/2020 06:00 to 5:10 20.42 20.46 20.33 20.38 20.41 20.32
7/19/2020 05:00 to 4:10 20.15 20.14 20.27 20.39 20.33 20.39
7/19/2020 04:00 to 3:10 20.38 20.48 20.54 20.36 20.39 20.53
7/19/2020 03:00 to 2:10 20.58 20.48 20.65 20.55 20.57 20.61
7/19/2020 02:00 to 1:10 20.61 20.56 20.57 20.54 20.59 20.59
7/19/2020 01:00 to 0:10 20.60 20.65 20.66 20.72 20.72 20.72